THY642 HLLB-LTFM
Flight info
| Callsign | THY642 |
|---|---|
| Flight time | 1h 52m |
| Altitude | 37000 |
| Route | REDFI1F REDFI M1 RASNO DCT EVLIB P32 NEVIK UP32 REDRA UR32 IMR/N0450F360 UG80 DUGLA/N0450F370 UZ713 INBET |
| Aircraft | B738/M-SDE2E3FGHIRWXY/LB1 |
Departure
| Time | 2026-05-04 17:20 |
|---|---|
| Airport | Benina International Airport (HLLB) |
Arrival
| Time | 2026-05-04 19:13 |
|---|---|
| Airport | İstanbul Airport (LTFM) |
| Time | Latitude | Longitude | Altitude | Speed | Heading |
|---|---|---|---|---|---|
| 2026-05-04 17:00 | 32.08677 | 20.26919 | 409 ft | 0 kts | 209° |
| 2026-05-04 17:16 | 32.08684 | 20.26888 | 416 ft | 6 kts | 344° |
| 2026-05-04 17:16 | 32.08731 | 20.27069 | 415 ft | 15 kts | 116° |
| 2026-05-04 17:17 | 32.08648 | 20.27141 | 415 ft | 15 kts | 150° |
| 2026-05-04 17:17 | 32.08293 | 20.27381 | 410 ft | 24 kts | 150° |
| 2026-05-04 17:18 | 32.08157 | 20.27473 | 414 ft | 19 kts | 150° |
| 2026-05-04 17:18 | 32.08194 | 20.27678 | 413 ft | 14 kts | 59° |
| 2026-05-04 17:19 | 32.08275 | 20.27716 | 412 ft | 1 kts | 332° |
| 2026-05-04 17:19 | 32.08447 | 20.27602 | 410 ft | 62 kts | 330° |
| 2026-05-04 17:20 | 32.09924 | 20.26606 | 648 ft | 159 kts | 332° |
| 2026-05-04 17:20 | 32.11921 | 20.25697 | 2212 ft | 157 kts | 341° |
| 2026-05-04 17:20 | 32.13014 | 20.25223 | 2591 ft | 184 kts | 345° |
| 2026-05-04 17:21 | 32.15560 | 20.26421 | 3003 ft | 239 kts | 39° |
| 2026-05-04 17:21 | 32.20585 | 20.29169 | 5368 ft | 263 kts | 22° |
| 2026-05-04 17:22 | 32.27371 | 20.32837 | 8781 ft | 275 kts | 22° |
| 2026-05-04 17:22 | 32.31385 | 20.35056 | 10443 ft | 293 kts | 21° |
| 2026-05-04 17:23 | 32.42395 | 20.41191 | 12908 ft | 359 kts | 21° |
| 2026-05-04 17:23 | 32.45259 | 20.42792 | 13832 ft | 363 kts | 21° |
| 2026-05-04 17:23 | 32.49867 | 20.45365 | 15107 ft | 369 kts | 20° |
| 2026-05-04 17:24 | 32.52203 | 20.46654 | 15791 ft | 371 kts | 20° |
| 2026-05-04 17:24 | 32.59349 | 20.50491 | 17643 ft | 381 kts | 19° |
| 2026-05-04 17:25 | 32.61778 | 20.51793 | 18244 ft | 385 kts | 19° |
| 2026-05-04 17:25 | 32.66692 | 20.54437 | 19347 ft | 390 kts | 18° |
| 2026-05-04 17:26 | 32.71655 | 20.57118 | 20440 ft | 395 kts | 18° |
| 2026-05-04 17:26 | 32.79213 | 20.61207 | 22027 ft | 401 kts | 19° |
| 2026-05-04 17:27 | 32.84326 | 20.63978 | 23011 ft | 406 kts | 18° |
| 2026-05-04 17:27 | 32.89498 | 20.66785 | 23938 ft | 411 kts | 18° |
| 2026-05-04 17:28 | 32.94692 | 20.69606 | 24701 ft | 415 kts | 18° |
| 2026-05-04 17:29 | 33.02629 | 20.73926 | 25858 ft | 421 kts | 18° |
| 2026-05-04 17:29 | 33.10690 | 20.78322 | 26900 ft | 428 kts | 18° |
| 2026-05-04 17:30 | 33.18878 | 20.82795 | 27821 ft | 436 kts | 18° |
| 2026-05-04 17:31 | 33.24427 | 20.85835 | 28452 ft | 441 kts | 18° |
| 2026-05-04 17:31 | 33.32839 | 20.90450 | 29366 ft | 446 kts | 18° |
| 2026-05-04 17:32 | 33.38506 | 20.93568 | 29995 ft | 449 kts | 19° |
| 2026-05-04 17:33 | 33.46956 | 20.98247 | 31190 ft | 443 kts | 18° |
| 2026-05-04 17:33 | 33.49751 | 20.99797 | 31523 ft | 442 kts | 18° |
| 2026-05-04 17:34 | 33.58099 | 21.04428 | 32540 ft | 439 kts | 18° |
| 2026-05-04 17:34 | 33.60869 | 21.05967 | 32871 ft | 438 kts | 17° |
| 2026-05-04 17:35 | 33.69133 | 21.10564 | 33880 ft | 435 kts | 17° |
| 2026-05-04 17:35 | 33.74607 | 21.13615 | 34452 ft | 433 kts | 17° |
| 2026-05-04 17:35 | 33.77344 | 21.15140 | 34627 ft | 435 kts | 17° |
| 2026-05-04 17:36 | 33.80102 | 21.16677 | 34740 ft | 438 kts | 17° |
| 2026-05-04 17:36 | 33.82826 | 21.18198 | 35008 ft | 436 kts | 17° |
| 2026-05-04 17:36 | 33.85571 | 21.19735 | 35331 ft | 434 kts | 17° |
| 2026-05-04 17:36 | 33.88304 | 21.21266 | 35602 ft | 433 kts | 17° |
| 2026-05-04 17:37 | 33.91032 | 21.22794 | 35809 ft | 433 kts | 17° |
| 2026-05-04 17:37 | 33.93765 | 21.24325 | 36023 ft | 433 kts | 17° |
| 2026-05-04 17:37 | 33.96490 | 21.25852 | 36261 ft | 432 kts | 17° |
| 2026-05-04 17:37 | 33.99213 | 21.27380 | 36489 ft | 431 kts | 17° |
| 2026-05-04 17:38 | 34.01934 | 21.28907 | 36695 ft | 431 kts | 17° |
| 2026-05-04 17:38 | 34.03772 | 21.29940 | 36833 ft | 431 kts | 16° |
| 2026-05-04 17:38 | 34.06488 | 21.31467 | 37042 ft | 431 kts | 16° |
| 2026-05-04 17:38 | 34.09168 | 21.32974 | 37186 ft | 432 kts | 16° |
| 2026-05-04 17:39 | 34.14629 | 21.36047 | 37180 ft | 433 kts | 16° |
| 2026-05-04 17:39 | 34.20059 | 21.39113 | 37174 ft | 429 kts | 16° |
| 2026-05-04 17:40 | 34.25445 | 21.42156 | 37174 ft | 426 kts | 16° |
| 2026-05-04 17:40 | 34.30798 | 21.45182 | 37194 ft | 424 kts | 16° |
| 2026-05-04 17:41 | 34.36186 | 21.48011 | 37187 ft | 419 kts | 12° |
| 2026-05-04 17:41 | 34.41674 | 21.50360 | 37179 ft | 419 kts | 11° |
| 2026-05-04 17:42 | 34.47194 | 21.52679 | 37182 ft | 421 kts | 11° |
| 2026-05-04 17:42 | 34.52731 | 21.55061 | 37178 ft | 424 kts | 11° |
| 2026-05-04 17:43 | 34.58301 | 21.57490 | 37179 ft | 427 kts | 12° |
| 2026-05-04 17:43 | 34.63902 | 21.59945 | 37177 ft | 429 kts | 12° |
| 2026-05-04 17:44 | 34.69525 | 21.62412 | 37174 ft | 430 kts | 12° |
| 2026-05-04 17:44 | 34.75162 | 21.64888 | 37171 ft | 431 kts | 12° |
| 2026-05-04 17:45 | 34.80805 | 21.67370 | 37171 ft | 431 kts | 12° |
| 2026-05-04 17:45 | 34.86444 | 21.69854 | 37165 ft | 431 kts | 12° |
| 2026-05-04 17:46 | 34.92073 | 21.72337 | 37167 ft | 430 kts | 12° |
| 2026-05-04 17:46 | 34.97689 | 21.74817 | 37165 ft | 428 kts | 12° |
| 2026-05-04 17:47 | 35.03007 | 21.78270 | 37186 ft | 446 kts | 32° |
| 2026-05-04 17:47 | 35.05261 | 21.80927 | 37166 ft | 457 kts | 43° |
| 2026-05-04 17:47 | 35.07115 | 21.84122 | 37182 ft | 464 kts | 50° |
| 2026-05-04 17:48 | 35.10519 | 21.90831 | 37161 ft | 464 kts | 50° |
| 2026-05-04 17:48 | 35.14051 | 21.97404 | 37154 ft | 459 kts | 45° |
| 2026-05-04 17:49 | 35.18027 | 22.03459 | 37180 ft | 456 kts | 43° |
| 2026-05-04 17:49 | 35.22057 | 22.09390 | 37166 ft | 456 kts | 43° |
| 2026-05-04 17:50 | 35.26071 | 22.15414 | 37167 ft | 457 kts | 44° |
| 2026-05-04 17:50 | 35.30065 | 22.21483 | 37153 ft | 458 kts | 44° |
| 2026-05-04 17:51 | 35.34054 | 22.27561 | 37146 ft | 458 kts | 44° |
| 2026-05-04 17:51 | 35.38050 | 22.33651 | 37162 ft | 459 kts | 44° |
| 2026-05-04 17:52 | 35.42029 | 22.39768 | 37151 ft | 459 kts | 44° |
| 2026-05-04 17:52 | 35.45986 | 22.45917 | 37169 ft | 459 kts | 44° |
| 2026-05-04 17:53 | 35.49944 | 22.52077 | 37151 ft | 460 kts | 44° |
| 2026-05-04 17:53 | 35.53900 | 22.58239 | 37170 ft | 460 kts | 44° |
| 2026-05-04 17:54 | 35.57860 | 22.64414 | 37148 ft | 460 kts | 44° |
| 2026-05-04 17:54 | 35.61814 | 22.70592 | 37140 ft | 460 kts | 44° |
| 2026-05-04 17:55 | 35.65759 | 22.76766 | 37146 ft | 459 kts | 45° |
| 2026-05-04 17:55 | 35.69698 | 22.82943 | 37147 ft | 459 kts | 44° |
| 2026-05-04 17:56 | 35.73631 | 22.89120 | 37146 ft | 459 kts | 44° |
| 2026-05-04 17:56 | 35.77558 | 22.95300 | 37139 ft | 458 kts | 44° |
| 2026-05-04 17:57 | 35.81473 | 23.01470 | 37130 ft | 457 kts | 44° |
| 2026-05-04 17:57 | 35.85381 | 23.07642 | 37131 ft | 456 kts | 44° |
| 2026-05-04 17:58 | 35.89279 | 23.13811 | 37165 ft | 456 kts | 44° |
| 2026-05-04 17:58 | 35.93174 | 23.19986 | 37144 ft | 456 kts | 44° |
| 2026-05-04 17:59 | 35.97040 | 23.26128 | 37127 ft | 456 kts | 44° |
| 2026-05-04 18:00 | 36.02869 | 23.35409 | 37127 ft | 456 kts | 44° |
| 2026-05-04 18:00 | 36.06748 | 23.41599 | 37132 ft | 456 kts | 44° |
| 2026-05-04 18:01 | 36.10631 | 23.47804 | 37134 ft | 456 kts | 44° |
| 2026-05-04 18:01 | 36.14515 | 23.54019 | 37129 ft | 457 kts | 44° |
| 2026-05-04 18:02 | 36.20347 | 23.63362 | 37126 ft | 457 kts | 45° |
| 2026-05-04 18:02 | 36.24234 | 23.69604 | 37139 ft | 458 kts | 45° |
| 2026-05-04 18:03 | 36.28123 | 23.75862 | 37150 ft | 458 kts | 45° |
| 2026-05-04 18:03 | 36.32009 | 23.82128 | 37129 ft | 459 kts | 45° |
| 2026-05-04 18:04 | 36.35894 | 23.88403 | 37120 ft | 458 kts | 45° |
| 2026-05-04 18:05 | 36.41707 | 23.97815 | 37133 ft | 458 kts | 45° |
| 2026-05-04 18:05 | 36.45573 | 24.04089 | 37120 ft | 457 kts | 45° |
| 2026-05-04 18:06 | 36.51361 | 24.13503 | 37125 ft | 456 kts | 45° |
| 2026-05-04 18:06 | 36.55208 | 24.19775 | 37113 ft | 456 kts | 45° |
| 2026-05-04 18:07 | 36.59046 | 24.26043 | 37119 ft | 455 kts | 45° |
| 2026-05-04 18:07 | 36.62851 | 24.32269 | 37116 ft | 454 kts | 45° |
| 2026-05-04 18:08 | 36.66667 | 24.38525 | 37120 ft | 453 kts | 45° |
| 2026-05-04 18:08 | 36.70472 | 24.44775 | 37128 ft | 453 kts | 46° |
| 2026-05-04 18:09 | 36.78119 | 24.57232 | 37126 ft | 451 kts | 45° |
| 2026-05-04 18:10 | 36.82000 | 24.63374 | 37121 ft | 450 kts | 45° |
| 2026-05-04 18:10 | 36.85869 | 24.69528 | 37126 ft | 450 kts | 45° |
| 2026-05-04 18:11 | 36.89719 | 24.75684 | 37141 ft | 450 kts | 46° |
| 2026-05-04 18:11 | 36.93571 | 24.81844 | 37127 ft | 449 kts | 45° |
| 2026-05-04 18:12 | 36.97437 | 24.87979 | 37128 ft | 449 kts | 45° |
| 2026-05-04 18:12 | 37.01305 | 24.94121 | 37130 ft | 450 kts | 45° |
| 2026-05-04 18:13 | 37.05171 | 25.00280 | 37131 ft | 450 kts | 45° |
| 2026-05-04 18:14 | 37.10967 | 25.09542 | 37138 ft | 451 kts | 46° |
| 2026-05-04 18:14 | 37.14834 | 25.15715 | 37126 ft | 450 kts | 46° |
| 2026-05-04 18:15 | 37.22608 | 25.28031 | 37134 ft | 451 kts | 48° |
| 2026-05-04 18:16 | 37.26390 | 25.34300 | 37123 ft | 450 kts | 48° |
| 2026-05-04 18:16 | 37.30171 | 25.40486 | 37100 ft | 449 kts | 47° |
| 2026-05-04 18:17 | 37.35923 | 25.49758 | 37099 ft | 448 kts | 47° |
| 2026-05-04 18:18 | 37.41639 | 25.59028 | 37101 ft | 447 kts | 47° |
| 2026-05-04 18:18 | 37.45440 | 25.65209 | 37120 ft | 446 kts | 48° |
| 2026-05-04 18:19 | 37.51124 | 25.74489 | 37110 ft | 446 kts | 48° |
| 2026-05-04 18:19 | 37.54905 | 25.80679 | 37114 ft | 446 kts | 48° |
| 2026-05-04 18:20 | 37.58682 | 25.86872 | 37108 ft | 446 kts | 48° |
| 2026-05-04 18:20 | 37.62461 | 25.93074 | 37097 ft | 446 kts | 48° |
| 2026-05-04 18:21 | 37.66239 | 25.99281 | 37106 ft | 446 kts | 48° |
| 2026-05-04 18:21 | 37.70015 | 26.05500 | 37095 ft | 446 kts | 48° |
| 2026-05-04 18:22 | 37.73789 | 26.11725 | 37099 ft | 446 kts | 48° |
| 2026-05-04 18:22 | 37.77550 | 26.17964 | 37093 ft | 447 kts | 49° |
| 2026-05-04 18:23 | 37.81300 | 26.24230 | 37095 ft | 447 kts | 49° |
| 2026-05-04 18:23 | 37.85050 | 26.30501 | 37105 ft | 447 kts | 49° |
| 2026-05-04 18:24 | 37.88807 | 26.36768 | 37091 ft | 447 kts | 49° |
| 2026-05-04 18:24 | 37.92577 | 26.43022 | 37083 ft | 446 kts | 49° |
| 2026-05-04 18:25 | 37.96335 | 26.49283 | 37084 ft | 446 kts | 49° |
| 2026-05-04 18:25 | 38.00181 | 26.55421 | 37085 ft | 443 kts | 45° |
| 2026-05-04 18:26 | 38.04254 | 26.61208 | 37081 ft | 442 kts | 44° |
| 2026-05-04 18:26 | 38.08366 | 26.67004 | 37075 ft | 442 kts | 44° |
| 2026-05-04 18:27 | 38.12444 | 26.72837 | 37071 ft | 441 kts | 45° |
| 2026-05-04 18:27 | 38.15847 | 26.77741 | 37074 ft | 441 kts | 45° |
| 2026-05-04 18:28 | 38.19895 | 26.83590 | 37060 ft | 441 kts | 45° |
| 2026-05-04 18:28 | 38.23944 | 26.89448 | 37061 ft | 441 kts | 45° |
| 2026-05-04 18:29 | 38.27991 | 26.95311 | 37055 ft | 441 kts | 45° |
| 2026-05-04 18:29 | 38.30101 | 26.98042 | 37034 ft | 436 kts | 34° |
| 2026-05-04 18:29 | 38.32643 | 27.00082 | 37072 ft | 430 kts | 23° |
| 2026-05-04 18:30 | 38.38346 | 27.02084 | 37066 ft | 426 kts | 6° |
| 2026-05-04 18:30 | 38.41320 | 27.02597 | 37056 ft | 426 kts | 6° |
| 2026-05-04 18:31 | 38.47158 | 27.03581 | 37058 ft | 426 kts | 6° |
| 2026-05-04 18:31 | 38.53034 | 27.04621 | 37059 ft | 426 kts | 7° |
| 2026-05-04 18:32 | 38.58915 | 27.05697 | 37055 ft | 427 kts | 7° |
| 2026-05-04 18:32 | 38.64793 | 27.06782 | 37057 ft | 427 kts | 7° |
| 2026-05-04 18:33 | 38.70671 | 27.07870 | 37064 ft | 427 kts | 7° |
| 2026-05-04 18:33 | 38.76552 | 27.08959 | 37066 ft | 427 kts | 7° |
| 2026-05-04 18:34 | 38.82436 | 27.10050 | 37054 ft | 427 kts | 7° |
| 2026-05-04 18:34 | 38.88320 | 27.11143 | 37056 ft | 427 kts | 7° |
| 2026-05-04 18:35 | 38.94197 | 27.12236 | 37057 ft | 427 kts | 7° |
| 2026-05-04 18:35 | 39.00069 | 27.13330 | 37054 ft | 426 kts | 7° |
| 2026-05-04 18:36 | 39.05940 | 27.14399 | 37053 ft | 426 kts | 7° |
| 2026-05-04 18:36 | 39.11808 | 27.15456 | 37057 ft | 426 kts | 7° |
| 2026-05-04 18:37 | 39.17668 | 27.16517 | 37058 ft | 425 kts | 7° |
| 2026-05-04 18:37 | 39.23528 | 27.17582 | 37081 ft | 425 kts | 7° |
| 2026-05-04 18:38 | 39.29389 | 27.18649 | 37070 ft | 425 kts | 7° |
| 2026-05-04 18:38 | 39.35250 | 27.19718 | 37065 ft | 425 kts | 7° |
| 2026-05-04 18:39 | 39.41110 | 27.20790 | 37076 ft | 425 kts | 7° |
| 2026-05-04 18:39 | 39.46973 | 27.21863 | 37064 ft | 426 kts | 7° |
| 2026-05-04 18:39 | 39.49919 | 27.22343 | 36748 ft | 431 kts | 3° |
| 2026-05-04 18:40 | 39.52868 | 27.22320 | 36307 ft | 426 kts | 357° |
| 2026-05-04 18:40 | 39.55827 | 27.22101 | 35655 ft | 427 kts | 357° |
| 2026-05-04 18:40 | 39.58793 | 27.21871 | 35027 ft | 426 kts | 358° |
| 2026-05-04 18:40 | 39.61753 | 27.21647 | 34381 ft | 426 kts | 358° |
| 2026-05-04 18:41 | 39.64749 | 27.21433 | 33787 ft | 424 kts | 359° |
| 2026-05-04 18:41 | 39.67676 | 27.21232 | 33258 ft | 419 kts | 359° |
| 2026-05-04 18:41 | 39.70535 | 27.21040 | 32761 ft | 415 kts | 359° |
| 2026-05-04 18:41 | 39.73400 | 27.20851 | 32285 ft | 410 kts | 359° |
| 2026-05-04 18:42 | 39.76234 | 27.20665 | 31820 ft | 406 kts | 359° |
| 2026-05-04 18:42 | 39.79040 | 27.20480 | 31352 ft | 402 kts | 359° |
| 2026-05-04 18:42 | 39.81816 | 27.20297 | 30904 ft | 398 kts | 359° |
| 2026-05-04 18:42 | 39.84563 | 27.20116 | 30455 ft | 394 kts | 359° |
| 2026-05-04 18:43 | 39.87290 | 27.19936 | 29987 ft | 390 kts | 359° |
| 2026-05-04 18:43 | 39.89985 | 27.19758 | 29456 ft | 386 kts | 359° |
| 2026-05-04 18:43 | 39.92655 | 27.19581 | 28982 ft | 382 kts | 359° |
| 2026-05-04 18:43 | 39.95293 | 27.19405 | 28522 ft | 378 kts | 359° |
| 2026-05-04 18:44 | 39.97900 | 27.19452 | 28041 ft | 372 kts | 7° |
| 2026-05-04 18:44 | 39.99588 | 27.19753 | 27749 ft | 368 kts | 12° |
| 2026-05-04 18:44 | 40.02862 | 27.20952 | 27151 ft | 363 kts | 18° |
| 2026-05-04 18:44 | 40.05257 | 27.21963 | 26675 ft | 360 kts | 18° |
| 2026-05-04 18:45 | 40.07629 | 27.22964 | 26242 ft | 357 kts | 18° |
| 2026-05-04 18:45 | 40.09987 | 27.23949 | 25796 ft | 355 kts | 18° |
| 2026-05-04 18:45 | 40.12335 | 27.24919 | 25355 ft | 353 kts | 18° |
| 2026-05-04 18:45 | 40.14669 | 27.25880 | 24913 ft | 351 kts | 18° |
| 2026-05-04 18:46 | 40.16987 | 27.26848 | 24456 ft | 350 kts | 20° |
| 2026-05-04 18:46 | 40.19124 | 27.28334 | 23995 ft | 349 kts | 36° |
| 2026-05-04 18:46 | 40.20912 | 27.30504 | 23472 ft | 351 kts | 44° |
| 2026-05-04 18:46 | 40.22592 | 27.32825 | 22955 ft | 350 kts | 44° |
| 2026-05-04 18:47 | 40.24238 | 27.35149 | 22493 ft | 347 kts | 45° |
| 2026-05-04 18:47 | 40.25865 | 27.37452 | 22057 ft | 343 kts | 45° |
| 2026-05-04 18:47 | 40.27479 | 27.39727 | 21656 ft | 339 kts | 44° |
| 2026-05-04 18:47 | 40.29078 | 27.41973 | 21236 ft | 336 kts | 44° |
| 2026-05-04 18:48 | 40.30667 | 27.44195 | 20825 ft | 333 kts | 44° |
| 2026-05-04 18:48 | 40.32245 | 27.46399 | 20420 ft | 329 kts | 44° |
| 2026-05-04 18:48 | 40.33806 | 27.48577 | 20035 ft | 326 kts | 44° |
| 2026-05-04 18:48 | 40.35354 | 27.50735 | 19635 ft | 324 kts | 44° |
| 2026-05-04 18:49 | 40.36891 | 27.52878 | 19237 ft | 321 kts | 44° |
| 2026-05-04 18:49 | 40.38417 | 27.55007 | 18842 ft | 319 kts | 44° |
| 2026-05-04 18:49 | 40.39930 | 27.57118 | 18443 ft | 316 kts | 44° |
| 2026-05-04 18:49 | 40.41412 | 27.59187 | 18011 ft | 314 kts | 44° |
| 2026-05-04 18:50 | 40.42901 | 27.61268 | 17580 ft | 311 kts | 44° |
| 2026-05-04 18:50 | 40.44376 | 27.63331 | 17181 ft | 308 kts | 44° |
| 2026-05-04 18:50 | 40.45836 | 27.65373 | 16780 ft | 305 kts | 44° |
| 2026-05-04 18:50 | 40.47282 | 27.67398 | 16396 ft | 303 kts | 44° |
| 2026-05-04 18:51 | 40.48717 | 27.69407 | 16004 ft | 300 kts | 44° |
| 2026-05-04 18:51 | 40.50134 | 27.71398 | 15630 ft | 297 kts | 44° |
| 2026-05-04 18:51 | 40.51540 | 27.73371 | 15274 ft | 295 kts | 44° |
| 2026-05-04 18:51 | 40.52940 | 27.75334 | 14890 ft | 294 kts | 44° |
| 2026-05-04 18:52 | 40.54332 | 27.77289 | 14517 ft | 292 kts | 44° |
| 2026-05-04 18:52 | 40.55718 | 27.79236 | 14152 ft | 291 kts | 44° |
| 2026-05-04 18:52 | 40.57097 | 27.81173 | 13758 ft | 290 kts | 44° |
| 2026-05-04 18:52 | 40.58469 | 27.83105 | 13363 ft | 288 kts | 44° |
| 2026-05-04 18:53 | 40.59836 | 27.85030 | 12974 ft | 286 kts | 44° |
| 2026-05-04 18:53 | 40.61189 | 27.86937 | 12601 ft | 284 kts | 43° |
| 2026-05-04 18:53 | 40.62533 | 27.88833 | 12238 ft | 282 kts | 43° |
| 2026-05-04 18:53 | 40.63868 | 27.90717 | 11881 ft | 280 kts | 43° |
| 2026-05-04 18:54 | 40.65192 | 27.92587 | 11525 ft | 278 kts | 43° |
| 2026-05-04 18:54 | 40.66507 | 27.94445 | 11173 ft | 276 kts | 43° |
| 2026-05-04 18:54 | 40.67814 | 27.96292 | 10811 ft | 275 kts | 43° |
| 2026-05-04 18:54 | 40.69116 | 27.98132 | 10512 ft | 272 kts | 43° |
| 2026-05-04 18:55 | 40.70379 | 27.99923 | 10376 ft | 263 kts | 43° |
| 2026-05-04 18:55 | 40.72786 | 28.03337 | 10136 ft | 245 kts | 43° |
| 2026-05-04 18:55 | 40.73927 | 28.04957 | 10035 ft | 237 kts | 43° |
| 2026-05-04 18:56 | 40.75040 | 28.06536 | 9802 ft | 234 kts | 42° |
| 2026-05-04 18:56 | 40.76141 | 28.08097 | 9560 ft | 232 kts | 41° |
| 2026-05-04 18:56 | 40.77235 | 28.09649 | 9284 ft | 230 kts | 41° |
| 2026-05-04 18:56 | 40.78319 | 28.11187 | 9018 ft | 228 kts | 41° |
| 2026-05-04 18:57 | 40.79398 | 28.12719 | 8759 ft | 227 kts | 41° |
| 2026-05-04 18:57 | 40.80469 | 28.14242 | 8502 ft | 227 kts | 41° |
| 2026-05-04 18:57 | 40.81558 | 28.15787 | 8246 ft | 233 kts | 41° |
| 2026-05-04 18:57 | 40.82670 | 28.17367 | 7971 ft | 240 kts | 42° |
| 2026-05-04 18:58 | 40.83816 | 28.18997 | 7702 ft | 243 kts | 43° |
| 2026-05-04 18:58 | 40.84963 | 28.20633 | 7419 ft | 242 kts | 42° |
| 2026-05-04 18:58 | 40.86105 | 28.22264 | 7133 ft | 241 kts | 42° |
| 2026-05-04 18:58 | 40.87241 | 28.23887 | 6855 ft | 240 kts | 42° |
| 2026-05-04 18:59 | 40.88358 | 28.25483 | 6580 ft | 239 kts | 42° |
| 2026-05-04 18:59 | 40.89484 | 28.27091 | 6311 ft | 238 kts | 42° |
| 2026-05-04 18:59 | 40.90619 | 28.28714 | 6011 ft | 237 kts | 43° |
| 2026-05-04 18:59 | 40.91724 | 28.30294 | 5741 ft | 236 kts | 42° |
| 2026-05-04 19:00 | 40.92837 | 28.31885 | 5471 ft | 235 kts | 42° |
| 2026-05-04 19:00 | 40.93936 | 28.33460 | 5315 ft | 229 kts | 43° |
| 2026-05-04 19:00 | 40.94998 | 28.34984 | 5195 ft | 222 kts | 42° |
| 2026-05-04 19:00 | 40.96040 | 28.36478 | 5079 ft | 221 kts | 43° |
| 2026-05-04 19:01 | 40.96806 | 28.38311 | 5047 ft | 243 kts | 71° |
| 2026-05-04 19:01 | 40.96707 | 28.40625 | 5009 ft | 268 kts | 103° |
| 2026-05-04 19:01 | 40.95853 | 28.42847 | 5001 ft | 270 kts | 114° |
| 2026-05-04 19:01 | 40.94918 | 28.44946 | 4982 ft | 259 kts | 114° |
| 2026-05-04 19:02 | 40.94019 | 28.46956 | 4975 ft | 251 kts | 113° |
| 2026-05-04 19:02 | 40.93148 | 28.48938 | 4979 ft | 248 kts | 112° |
| 2026-05-04 19:02 | 40.92289 | 28.50913 | 4978 ft | 247 kts | 113° |
| 2026-05-04 19:02 | 40.91437 | 28.52878 | 4986 ft | 246 kts | 112° |
| 2026-05-04 19:03 | 40.90588 | 28.54837 | 4986 ft | 245 kts | 112° |
| 2026-05-04 19:03 | 40.89744 | 28.56795 | 4998 ft | 245 kts | 111° |
| 2026-05-04 19:03 | 40.89307 | 28.58870 | 4987 ft | 227 kts | 78° |
| 2026-05-04 19:03 | 40.89614 | 28.60860 | 5000 ft | 219 kts | 65° |
| 2026-05-04 19:04 | 40.90109 | 28.62766 | 5010 ft | 220 kts | 63° |
| 2026-05-04 19:04 | 40.90621 | 28.64679 | 5005 ft | 222 kts | 63° |
| 2026-05-04 19:04 | 40.91133 | 28.66611 | 5005 ft | 224 kts | 62° |
| 2026-05-04 19:04 | 40.91732 | 28.68487 | 4985 ft | 217 kts | 47° |
| 2026-05-04 19:05 | 40.92790 | 28.69818 | 4994 ft | 207 kts | 28° |
| 2026-05-04 19:05 | 40.94026 | 28.70772 | 5000 ft | 205 kts | 25° |
| 2026-05-04 19:05 | 40.95281 | 28.71674 | 4993 ft | 205 kts | 24° |
| 2026-05-04 19:05 | 40.96530 | 28.72577 | 4989 ft | 202 kts | 24° |
| 2026-05-04 19:06 | 40.97752 | 28.73344 | 4970 ft | 186 kts | 9° |
| 2026-05-04 19:06 | 40.99004 | 28.73335 | 5007 ft | 178 kts | 359° |
| 2026-05-04 19:06 | 41.00251 | 28.73330 | 5012 ft | 181 kts | 0° |
| 2026-05-04 19:06 | 41.01527 | 28.73329 | 5005 ft | 185 kts | 360° |
| 2026-05-04 19:07 | 41.02825 | 28.73313 | 4958 ft | 189 kts | 359° |
| 2026-05-04 19:07 | 41.04149 | 28.73288 | 4710 ft | 192 kts | 359° |
| 2026-05-04 19:07 | 41.05481 | 28.73258 | 4443 ft | 188 kts | 359° |
| 2026-05-04 19:07 | 41.06765 | 28.73228 | 4189 ft | 181 kts | 359° |
| 2026-05-04 19:08 | 41.07983 | 28.73200 | 3961 ft | 175 kts | 359° |
| 2026-05-04 19:08 | 41.09178 | 28.73172 | 3716 ft | 169 kts | 360° |
| 2026-05-04 19:08 | 41.10334 | 28.73145 | 3495 ft | 163 kts | 0° |
| 2026-05-04 19:08 | 41.11451 | 28.73119 | 3290 ft | 158 kts | 360° |
| 2026-05-04 19:09 | 41.12555 | 28.73094 | 3077 ft | 161 kts | 0° |
| 2026-05-04 19:09 | 41.13683 | 28.73068 | 2838 ft | 163 kts | 360° |
| 2026-05-04 19:09 | 41.14815 | 28.73042 | 2610 ft | 161 kts | 360° |
| 2026-05-04 19:09 | 41.15901 | 28.73016 | 2409 ft | 152 kts | 360° |
| 2026-05-04 19:10 | 41.16908 | 28.72993 | 2193 ft | 141 kts | 0° |
| 2026-05-04 19:10 | 41.17881 | 28.72970 | 2008 ft | 138 kts | 1° |
| 2026-05-04 19:10 | 41.18834 | 28.72948 | 1820 ft | 138 kts | 0° |
| 2026-05-04 19:10 | 41.19794 | 28.72925 | 1649 ft | 139 kts | 0° |
| 2026-05-04 19:11 | 41.20773 | 28.72903 | 1452 ft | 141 kts | 0° |
| 2026-05-04 19:11 | 41.21760 | 28.72881 | 1251 ft | 141 kts | 359° |
| 2026-05-04 19:11 | 41.22747 | 28.72858 | 1057 ft | 143 kts | 359° |
| 2026-05-04 19:11 | 41.23756 | 28.72834 | 860 ft | 146 kts | 357° |
| 2026-05-04 19:12 | 41.24786 | 28.72810 | 669 ft | 149 kts | 356° |
| 2026-05-04 19:12 | 41.26833 | 28.72762 | 330 ft | 132 kts | 359° |
| 2026-05-04 19:12 | 41.27536 | 28.72747 | 329 ft | 69 kts | 359° |
| 2026-05-04 19:13 | 41.27845 | 28.72742 | 333 ft | 28 kts | 4° |
| 2026-05-04 19:13 | 41.28018 | 28.72799 | 333 ft | 18 kts | 28° |
| 2026-05-04 19:13 | 41.28124 | 28.72880 | 329 ft | 16 kts | 44° |
| 2026-05-04 19:13 | 41.28073 | 28.72961 | 331 ft | 15 kts | 181° |
| 2026-05-04 19:14 | 41.27969 | 28.72963 | 333 ft | 15 kts | 179° |
| 2026-05-04 19:14 | 41.27870 | 28.72965 | 331 ft | 15 kts | 179° |
| 2026-05-04 19:14 | 41.27760 | 28.72968 | 330 ft | 17 kts | 179° |
| 2026-05-04 19:14 | 41.27629 | 28.72971 | 329 ft | 20 kts | 179° |
| 2026-05-04 19:15 | 41.27479 | 28.72974 | 333 ft | 22 kts | 179° |
| 2026-05-04 19:15 | 41.27372 | 28.72977 | 330 ft | 24 kts | 179° |
| 2026-05-04 19:15 | 41.27137 | 28.72982 | 330 ft | 25 kts | 179° |
| 2026-05-04 19:15 | 41.27032 | 28.72985 | 332 ft | 18 kts | 179° |
| 2026-05-04 19:16 | 41.26957 | 28.73022 | 332 ft | 12 kts | 112° |
| 2026-05-04 19:16 | 41.26954 | 28.73150 | 333 ft | 15 kts | 89° |
| 2026-05-04 19:16 | 41.26956 | 28.73313 | 333 ft | 21 kts | 89° |
| 2026-05-04 19:16 | 41.26960 | 28.73541 | 333 ft | 20 kts | 89° |
| 2026-05-04 19:17 | 41.26962 | 28.73705 | 333 ft | 18 kts | 89° |
| 2026-05-04 19:17 | 41.26964 | 28.73865 | 333 ft | 17 kts | 89° |
| 2026-05-04 19:17 | 41.26959 | 28.73989 | 333 ft | 12 kts | 116° |
| 2026-05-04 19:17 | 41.26884 | 28.74017 | 329 ft | 12 kts | 179° |
| 2026-05-04 19:18 | 41.26811 | 28.74029 | 330 ft | 9 kts | 146° |
| 2026-05-04 19:18 | 41.26801 | 28.74091 | 331 ft | 6 kts | 88° |
| 2026-05-04 19:18 | 41.26801 | 28.74128 | 332 ft | 1 kts | 89° |
| 2026-05-04 19:18 | 41.26801 | 28.74130 | 332 ft | 0 kts | 89° |